Port Huron, MI (48060)

9:01 AM EST on December 27, 2014 (GMT -0500)
Port Huron Township | Change Station
CLOSE
Current Station
Personal Weather Station
Location: Port Huron, MI
Elevation: 594 ft
Nearby Weather Stations

Elev 594 ft 43.00 °N, 82.48 °W | Updated 5 minutes ago

Overcast
Overcast
41.2 °F
Feels Like 41 °F
N
0.0
Wind Variable Wind from SW
Gusts 5.0 mph

Today
High -- | Low -- °F
--% Chance of Precip.
Yesterday
High -- | Low -- °F
Precip. -- in
8:00 AM 5:01 PM
Waxing Crescent, 37% visible
Pressure 30.07 in
Visibility 7.0 miles
Clouds Scattered Clouds 5000 ft
Overcast 8000 ft
Windchill 41 °F
Dew Point 39 °F
Humidity 93%
Rainfall 0.00 in
Snow Depth Not available.
UV 0 out of 12
Pollen .10 out of 12
Air Quality Not available.
Flu Activity Not available.
METAR KPHN 271357Z AUTO 18008KT 7SM SCT050 OVC080 05/04 A3007 RMK AO2

More Conditions Fewer Conditions

Pressure 30.07 in
Visibility 7.0 miles
Clouds Scattered Clouds 5000 ft
Overcast 8000 ft
Windchill 41 °F
Dew Point 39 °F
Humidity 93%
Rainfall 0.00 in
Snow Depth Not available.
UV 0 out of 12
Pollen .10 out of 12
Air Quality Not available.
Flu Activity Not available.
METAR KPHN 271357Z AUTO 18008KT 7SM SCT050 OVC080 05/04 A3007 RMK AO2

More Conditions Fewer Conditions

10-Day Weather Forecast

Almanac

Astronomy

Dec. 27, 2014 Rise Set
Actual Time
Civil Twilight
Nautical Twilight
Astronomical Twilight
Moon
Length of Visible Light
Length of Day
Tomorrow will be .
, % of the Moon is Illuminated

Today's Extremes

State Highs State Lows

Community

WunderPhotos

Upload Photos

1,780,905 photos uploaded!

WunderBlogs® & News

Nearby

Air Quality

  Air Quality AQ Index Pollutant
Not available.

Snow Depth

Station Depth Elevation

Earthquake Activity

City Distance Mag. Time & Date
Minimum magnitude displayed is 2.5.

Coastal Water Temperatures

Place Temperature

Nearby Weather Stations